Time;durP1;ratioP1;P1;durP2;ratioP2;P2;SDS_P1;SDS_P2;PMS_P1;PMS_P2;Temp;Humidity;BMP_temperature;BMP_pressure;BME280_temperature;BME280_humidity;BME280_pressure;Samples;Min_cycle;Max_cycle;Signal;HPM_P1;HPM_P2
2021/01/04 00:00:05;;;;;;;22.50;15.05;;;;;;;3.68;56.66;94770.59;5013806;28;20067;-63
2021/01/04 00:02:52;;;;;;;19.88;14.68;;;;;;;3.75;56.93;94763.22;5010966;28;20046;-66
2021/01/04 00:05:25;;;;;;;24.50;14.25;;;;;;;3.65;56.71;94748.25;5010708;28;20077;-61
2021/01/04 00:07:58;;;;;;;20.80;15.07;;;;;;;3.68;56.68;94765.34;5010660;28;20046;-63
2021/01/04 00:10:42;;;;;;;22.80;15.38;;;;;;;3.19;56.93;94718.72;5011801;28;20046;-63
2021/01/04 00:13:07;;;;;;;23.05;16.00;;;;;;;3.55;57.17;94764.88;5011506;28;20073;-64
2021/01/04 00:15:42;;;;;;;21.88;15.63;;;;;;;3.62;57.36;94762.72;5011860;28;20061;-63
2021/01/04 00:18:45;;;;;;;19.83;14.63;;;;;;;3.62;56.93;94767.97;5013910;28;20080;-65
2021/01/04 00:21:24;;;;;;;19.60;14.25;;;;;;;3.20;56.87;94694.00;5011003;28;20128;-62
2021/01/04 00:24:09;;;;;;;21.85;15.77;;;;;;;3.65;57.09;94762.19;5012137;28;20022;-63
2021/01/04 00:26:48;;;;;;;21.45;15.95;;;;;;;3.74;56.91;94769.53;5027236;28;20522;-64
2021/01/04 00:29:15;;;;;;;26.55;16.50;;;;;;;3.40;57.02;94707.06;5011335;28;20034;-63
2021/01/04 00:31:43;;;;;;;20.42;13.93;;;;;;;3.46;56.61;94708.63;5011426;28;20049;-62
2021/01/04 00:34:42;;;;;;;20.50;14.40;;;;;;;3.70;56.54;94747.47;5011538;28;20113;-62
2021/01/04 00:37:24;;;;;;;24.02;15.32;;;;;;;3.66;56.75;94741.94;5008372;28;20038;-62
2021/01/04 00:40:27;;;;;;;19.83;14.05;;;;;;;3.86;56.98;94770.78;5011295;28;20050;-62
2021/01/04 00:42:53;;;;;;;17.75;13.30;;;;;;;3.52;56.78;94714.66;4969579;28;20117;-63
2021/01/04 00:45:30;;;;;;;22.48;14.70;;;;;;;3.53;56.74;94711.75;5001627;28;20041;-62
2021/01/04 00:48:08;;;;;;;23.02;14.70;;;;;;;3.94;56.66;94766.00;5013253;28;20539;-63
2021/01/04 00:50:52;;;;;;;19.30;13.57;;;;;;;3.91;56.63;94775.25;5011333;28;20041;-63
2021/01/04 00:53:33;;;;;;;17.40;13.05;;;;;;;3.91;56.15;94777.88;5009745;28;20046;-62
2021/01/04 00:56:23;;;;;;;17.80;12.90;;;;;;;3.80;56.01;94769.25;5011138;28;20042;-62
2021/01/04 00:59:00;;;;;;;19.45;13.43;;;;;;;3.84;56.22;94772.91;5010580;28;20045;-63
2021/01/04 01:01:44;;;;;;;17.02;13.30;;;;;;;3.72;56.69;94763.75;5009257;28;20049;-62
2021/01/04 01:04:31;;;;;;;21.45;14.27;;;;;;;3.84;56.57;94780.03;5011013;28;20168;-62
2021/01/04 01:07:09;;;;;;;18.15;12.65;;;;;;;2.26;59.01;94740.84;5010815;28;20107;-64
2021/01/04 01:09:39;;;;;;;17.42;11.45;;;;;;;2.12;59.97;94776.50;5009326;28;20050;-62
2021/01/04 01:12:13;;;;;;;15.10;11.60;;;;;;;2.80;58.32;94782.34;5011329;28;20054;-62
2021/01/04 01:14:54;;;;;;;16.10;11.88;;;;;;;2.39;59.38;94782.31;5011040;28;20487;-63
2021/01/04 01:17:57;;;;;;;19.00;12.30;;;;;;;1.83;61.39;94790.06;5009382;28;20423;-62
2021/01/04 01:20:23;;;;;;;18.38;12.05;;;;;;;1.01;63.54;94766.09;5010456;28;20069;-62
2021/01/04 01:22:48;;;;;;;17.40;13.25;;;;;;;1.93;61.49;94766.50;5010249;28;20084;-62
2021/01/04 01:25:16;;;;;;;17.65;13.32;;;;;;;1.85;61.13;94803.72;5010629;28;20050;-62
2021/01/04 01:28:11;;;;;;;15.55;11.82;;;;;;;2.04;60.75;94801.41;5008914;28;20042;-62
2021/01/04 01:30:58;;;;;;;16.58;12.27;;;;;;;1.62;62.31;94798.91;5008956;28;20050;-63
2021/01/04 01:33:42;;;;;;;15.48;12.10;;;;;;;1.96;60.80;94752.88;5010184;28;20034;-64
2021/01/04 01:36:44;;;;;;;16.58;12.30;;;;;;;2.55;59.86;94796.25;5010441;28;20495;-64
2021/01/04 01:39:24;;;;;;;15.95;12.52;;;;;;;2.75;58.79;94784.97;5008778;28;20038;-64
2021/01/04 01:42:21;;;;;;;18.77;12.35;;;;;;;1.94;60.38;94793.50;5012298;28;20026;-64
2021/01/04 01:45:13;;;;;;;17.60;13.10;;;;;;;2.28;60.30;94788.63;5010759;28;20052;-63
2021/01/04 01:48:16;;;;;;;18.33;13.18;;;;;;;2.36;59.92;94788.13;5009479;28;20108;-63
2021/01/04 01:50:48;;;;;;;21.73;14.55;;;;;;;2.54;59.30;94769.22;5010616;28;20037;-64
2021/01/04 01:53:27;;;;;;;16.90;12.23;;;;;;;2.45;58.74;94730.63;5010004;28;20076;-62
2021/01/04 01:56:18;;;;;;;22.02;13.23;;;;;;;2.13;59.48;94752.63;5010043;28;20038;-62
2021/01/04 01:59:23;;;;;;;16.88;12.90;;;;;;;1.93;60.19;94761.25;5009800;28;20085;-62
2021/01/04 02:02:12;;;;;;;19.15;13.32;;;;;;;2.20;59.48;94757.63;4993827;28;20038;-62
2021/01/04 02:04:37;;;;;;;17.90;12.93;;;;;;;2.18;60.51;94789.38;5010005;28;20125;-62
2021/01/04 02:07:06;;;;;;;16.70;12.70;;;;;;;2.05;60.28;94767.06;5008593;28;20120;-63
2021/01/04 02:09:45;;;;;;;17.58;13.50;;;;;;;2.51;59.77;94790.75;5007637;28;20558;-63
2021/01/04 02:12:16;;;;;;;19.48;14.13;;;;;;;2.78;59.68;94787.88;5009540;28;20036;-62
2021/01/04 02:14:57;;;;;;;20.15;12.73;;;;;;;1.53;62.13;94767.91;5010396;28;20440;-61
2021/01/04 02:17:49;;;;;;;18.83;13.35;;;;;;;1.87;61.77;94785.88;5009861;28;20168;-62
2021/01/04 02:20:33;;;;;;;17.23;12.88;;;;;;;2.13;60.63;94793.81;5009400;28;20053;-63
2021/01/04 02:23:34;;;;;;;17.33;13.65;;;;;;;2.44;60.04;94782.34;5009326;28;20487;-62
2021/01/04 02:26:08;;;;;;;21.77;13.70;;;;;;;2.64;59.45;94768.44;4974445;28;20038;-62
2021/01/04 02:28:50;;;;;;;18.92;13.07;;;;;;;2.71;58.90;94745.31;5009252;28;20129;-63
2021/01/04 02:31:15;;;;;;;15.07;12.18;;;;;;;2.77;58.33;94725.09;5009340;28;20096;-62
2021/01/04 02:33:40;;;;;;;19.10;13.48;;;;;;;3.04;57.58;94743.97;5009396;28;20575;-62
2021/01/04 02:36:06;;;;;;;19.05;13.10;;;;;;;3.02;57.50;94717.19;5009976;28;20031;-62
2021/01/04 02:38:39;;;;;;;16.00;12.65;;;;;;;3.49;57.20;94778.31;5009102;28;20038;-64
2021/01/04 02:41:04;;;;;;;19.85;14.00;;;;;;;3.44;57.66;94757.28;5007814;28;20034;-63
2021/01/04 02:43:30;;;;;;;21.33;14.18;;;;;;;3.46;56.89;94750.69;5007674;28;20046;-62
2021/01/04 02:46:03;;;;;;;18.15;13.07;;;;;;;3.53;56.65;94756.47;5007966;28;20065;-62
2021/01/04 02:48:45;;;;;;;18.98;14.50;;;;;;;3.64;56.50;94759.84;5008940;28;20199;-64
2021/01/04 02:51:22;;;;;;;18.08;13.55;;;;;;;3.75;56.04;94774.53;5008869;28;20030;-63
2021/01/04 02:54:11;;;;;;;17.27;13.00;;;;;;;3.78;55.97;94770.56;5011125;28;20029;-63
2021/01/04 02:57:07;;;;;;;15.88;13.20;;;;;;;3.60;55.92;94745.66;5009449;28;20481;-64
2021/01/04 02:59:58;;;;;;;18.92;14.23;;;;;;;2.93;55.93;94647.84;5007892;28;20060;-62
2021/01/04 03:02:42;;;;;;;18.98;14.45;;;;;;;3.60;56.02;94750.91;5008682;28;20042;-64
2021/01/04 03:05:11;;;;;;;17.80;13.88;;;;;;;3.61;55.82;94760.38;5009039;28;20129;-62
2021/01/04 03:07:37;;;;;;;17.45;13.18;;;;;;;3.50;55.47;94732.53;5008871;28;20065;-62
2021/01/04 03:10:17;;;;;;;19.33;13.65;;;;;;;3.87;56.31;94782.88;5008729;28;20070;-62
2021/01/04 03:12:50;;;;;;;22.50;14.52;;;;;;;3.57;55.76;94741.69;5008645;28;20038;-62
2021/01/04 03:15:34;;;;;;;18.48;14.02;;;;;;;3.73;55.69;94767.94;5008875;28;20427;-63
2021/01/04 03:18:20;;;;;;;21.80;14.68;;;;;;;3.83;56.09;94783.69;5009496;28;20030;-63
2021/01/04 03:20:46;;;;;;;17.88;14.45;;;;;;;3.65;56.36;94751.69;5011536;28;20046;-63
2021/01/04 03:23:12;;;;;;;19.45;15.38;;;;;;;3.61;56.11;94757.75;5011319;28;20504;-64
2021/01/04 03:25:37;;;;;;;19.10;15.25;;;;;;;3.84;56.38;94785.28;5012941;28;20034;-62
2021/01/04 03:28:05;;;;;;;19.38;14.07;;;;;;;3.51;55.67;94734.09;5012856;28;20579;-64
2021/01/04 03:30:31;;;;;;;21.38;15.05;;;;;;;3.63;55.86;94750.34;5013667;28;20038;-63
2021/01/04 03:32:57;;;;;;;20.08;14.02;;;;;;;3.67;55.71;94754.03;5015514;28;20136;-63
2021/01/04 03:35:23;;;;;;;20.30;14.90;;;;;;;3.91;55.63;94797.06;5012386;28;20149;-63
2021/01/04 03:37:48;;;;;;;21.90;15.25;;;;;;;3.64;56.07;94751.94;5013563;28;20056;-63
2021/01/04 03:40:15;;;;;;;20.35;14.82;;;;;;;3.69;56.09;94761.66;5012592;28;20495;-63
2021/01/04 03:42:41;;;;;;;18.35;14.00;;;;;;;3.86;55.86;94786.56;5013127;28;20060;-62
2021/01/04 03:45:07;;;;;;;20.25;14.45;;;;;;;3.88;55.82;94791.56;5014600;28;20025;-64
2021/01/04 03:47:33;;;;;;;17.35;14.38;;;;;;;3.65;55.96;94750.91;5014962;28;20080;-63
2021/01/04 03:49:58;;;;;;;22.55;15.43;;;;;;;3.70;55.53;94765.88;5013260;28;20042;-63
2021/01/04 03:52:24;;;;;;;21.73;15.52;;;;;;;3.18;55.63;94688.25;5012809;28;20030;-65
2021/01/04 03:54:49;;;;;;;20.83;15.43;;;;;;;3.46;55.92;94721.78;5011682;28;20034;-64
2021/01/04 03:57:14;;;;;;;22.05;16.33;;;;;;;3.82;55.59;94782.91;5013176;28;20063;-63
2021/01/04 03:59:41;;;;;;;22.10;15.77;;;;;;;3.43;55.67;94729.41;5014730;28;20529;-64
2021/01/04 04:02:06;;;;;;;20.33;14.88;;;;;;;3.40;55.99;94722.84;5013191;28;20348;-64
2021/01/04 04:04:32;;;;;;;22.48;15.65;;;;;;;3.38;55.96;94719.72;5013335;28;20053;-63
2021/01/04 04:06:57;;;;;;;19.15;14.93;;;;;;;3.68;56.00;94760.06;5013310;28;20145;-63
2021/01/04 04:09:23;;;;;;;20.40;15.52;;;;;;;3.81;55.89;94772.66;5012996;28;20654;-63
2021/01/04 04:11:49;;;;;;;26.48;17.70;;;;;;;3.81;56.37;94767.41;5014814;28;20026;-63
2021/01/04 04:14:15;;;;;;;19.52;15.63;;;;;;;3.85;56.03;94773.69;5013097;28;20050;-63
2021/01/04 04:16:40;;;;;;;22.50;15.98;;;;;;;3.49;56.06;94715.97;5012996;28;20096;-64
2021/01/04 04:19:06;;;;;;;19.92;15.50;;;;;;;3.87;56.02;94774.19;5012688;28;20484;-63
2021/01/04 04:21:32;;;;;;;20.52;15.77;;;;;;;3.37;55.66;94700.50;5012820;28;20034;-64
2021/01/04 04:23:58;;;;;;;20.17;15.77;;;;;;;3.33;55.39;94693.44;5013621;28;20018;-63
2021/01/04 04:26:26;;;;;;;22.20;16.73;;;;;;;3.41;55.68;94713.91;5012726;28;20053;-64
2021/01/04 04:28:51;;;;;;;21.67;15.60;;;;;;;2.79;55.65;94615.31;5012064;28;20050;-64
2021/01/04 04:31:17;;;;;;;21.00;15.38;;;;;;;3.81;55.77;94781.34;5011825;28;20381;-63
2021/01/04 04:33:44;;;;;;;21.35;14.63;;;;;;;3.43;55.49;94722.31;5012830;28;20248;-63
2021/01/04 04:36:11;;;;;;;20.40;14.40;;;;;;;3.41;56.04;94719.16;5012537;28;20511;-64
2021/01/04 04:38:36;;;;;;;21.27;15.82;;;;;;;3.77;55.91;94776.88;5014422;28;20022;-64
2021/01/04 04:41:02;;;;;;;22.55;16.08;;;;;;;3.80;55.75;94779.75;5010980;28;20041;-63
2021/01/04 04:43:45;;;;;;;23.02;16.25;;;;;;;3.34;55.95;94698.41;5011013;28;20049;-64
2021/01/04 04:46:43;;;;;;;22.48;16.35;;;;;;;3.77;55.66;94764.50;5012433;28;20042;-64
2021/01/04 04:49:42;;;;;;;21.98;16.15;;;;;;;3.85;55.56;94773.69;5011524;28;20057;-64
2021/01/04 04:52:16;;;;;;;22.90;15.55;;;;;;;3.80;55.97;94774.50;5010744;28;20046;-64
2021/01/04 04:55:07;;;;;;;23.73;16.50;;;;;;;3.54;56.16;94741.47;5011055;28;20046;-64
2021/01/04 04:57:44;;;;;;;21.73;15.32;;;;;;;3.48;56.03;94724.94;5011761;28;20488;-64
2021/01/04 05:00:35;;;;;;;20.25;14.85;;;;;;;3.73;55.93;94770.56;5010510;28;20076;-63
2021/01/04 05:03:46;;;;;;;24.17;16.50;;;;;;;3.07;56.29;94667.25;5013974;28;20037;-63
2021/01/04 05:06:51;;;;;;;22.63;16.60;;;;;;;3.43;56.31;94717.06;4991142;28;20510;-65
2021/01/04 05:09:29;;;;;;;24.63;16.95;;;;;;;3.35;55.87;94704.47;5011754;28;20030;-63
2021/01/04 05:12:24;;;;;;;18.92;15.38;;;;;;;3.50;56.19;94728.06;5012505;28;20029;-63
2021/01/04 05:14:57;;;;;;;20.98;15.60;;;;;;;3.47;55.98;94733.84;5027522;28;20447;-64
2021/01/04 05:17:41;;;;;;;19.65;15.30;;;;;;;3.81;55.62;94780.56;5011900;28;20038;-64
2021/01/04 05:20:40;;;;;;;22.45;16.88;;;;;;;3.71;56.25;94781.38;5011517;28;20073;-63
2021/01/04 05:23:34;;;;;;;19.90;15.27;;;;;;;3.51;55.94;94766.44;5011276;28;20401;-63
2021/01/04 05:26:08;;;;;;;18.85;15.30;;;;;;;3.47;55.75;94769.88;5010373;28;20046;-64
2021/01/04 05:28:54;;;;;;;18.60;14.48;;;;;;;3.56;56.39;94787.47;5023210;23;20052;-65
2021/01/04 05:31:57;;;;;;;20.73;15.13;;;;;;;2.91;56.08;94670.16;5010697;28;20042;-66
2021/01/04 05:34:36;;;;;;;20.70;15.50;;;;;;;3.53;56.16;94779.31;4993902;28;20050;-66
2021/01/04 05:37:20;;;;;;;21.42;15.95;;;;;;;3.52;56.09;94785.63;5011451;28;20263;-65
2021/01/04 05:39:48;;;;;;;22.00;15.82;;;;;;;3.35;56.47;94791.22;4993429;28;20152;-65
2021/01/04 05:42:30;;;;;;;23.58;16.90;;;;;;;3.25;56.61;94776.25;5011095;28;20388;-66
2021/01/04 05:45:21;;;;;;;21.88;14.77;;;;;;;2.78;57.69;94780.00;5012468;28;20399;-64
2021/01/04 05:48:09;;;;;;;21.17;14.82;;;;;;;2.70;57.67;94732.44;5011525;28;20555;-65
2021/01/04 05:51:01;;;;;;;21.90;14.73;;;;;;;2.92;57.23;94743.47;5011496;28;20034;-65
2021/01/04 05:53:26;;;;;;;21.15;16.02;;;;;;;2.98;57.42;94721.38;5011050;28;20117;-66
2021/01/04 05:55:59;;;;;;;22.50;17.05;;;;;;;3.14;56.83;94737.91;5011024;28;20136;-66
2021/01/04 05:58:31;;;;;;;20.45;16.15;;;;;;;3.34;56.79;94760.72;5010331;28;20044;-66
2021/01/04 06:01:14;;;;;;;;;;;;;;;3.42;56.75;94765.41;5011806;28;20042;-63
2021/01/04 06:03:39;;;;;;;25.20;16.27;;;;;;;3.48;56.46;94761.75;5011005;28;20462;-66
2021/01/04 06:06:13;;;;;;;21.85;16.35;;;;;;;3.52;56.56;94770.66;5012933;28;20117;-65
2021/01/04 06:08:39;;;;;;;21.05;16.27;;;;;;;3.35;56.14;94741.25;5011230;28;20038;-66
2021/01/04 06:11:10;;;;;;;24.92;16.77;;;;;;;3.33;56.09;94733.66;5010899;28;20038;-66
2021/01/04 06:13:44;;;;;;;21.75;16.10;;;;;;;3.58;56.33;94772.22;5010705;28;20130;-67
2021/01/04 06:16:13;;;;;;;26.70;18.63;;;;;;;3.54;55.79;94767.78;5010643;28;20661;-65
2021/01/04 06:18:48;;;;;;;23.38;16.88;;;;;;;3.50;56.05;94778.03;4992789;28;20438;-66
2021/01/04 06:21:32;;;;;;;27.13;18.48;;;;;;;3.52;56.21;94773.28;5010138;28;20399;-65
2021/01/04 06:24:03;;;;;;;25.17;17.65;;;;;;;3.55;56.16;94772.75;5012181;28;20041;-65
2021/01/04 06:26:28;;;;;;;25.95;18.42;;;;;;;3.60;55.94;94770.09;4993023;28;20080;-65
2021/01/04 06:29:01;;;;;;;26.05;18.00;;;;;;;3.58;56.22;94766.16;4992090;28;20495;-66
2021/01/04 06:31:32;;;;;;;25.90;18.48;;;;;;;3.64;56.01;94779.03;4992426;28;20407;-66
2021/01/04 06:34:03;;;;;;;29.48;18.88;;;;;;;3.45;56.02;94751.75;5010511;28;20069;-65
2021/01/04 06:36:31;;;;;;;30.40;19.00;;;;;;;3.62;56.03;94767.97;5010373;28;20084;-66
2021/01/04 06:39:17;;;;;;;31.60;20.00;;;;;;;3.47;56.16;94743.59;5012155;28;20427;-66
2021/01/04 06:41:43;;;;;;;28.77;19.38;;;;;;;3.49;56.36;94757.28;5010399;28;20533;-66
2021/01/04 06:44:25;;;;;;;32.00;19.15;;;;;;;3.31;56.23;94730.50;4992733;28;20088;-66
2021/01/04 06:47:06;;;;;;;;;;;;;;;3.62;56.25;94777.72;5010619;28;20045;-64
2021/01/04 06:49:42;;;;;;;30.38;18.58;;;;;;;3.57;56.15;94767.22;5010146;28;19918;-66
2021/01/04 06:52:45;;;;;;;32.42;20.00;;;;;;;3.54;56.58;94759.88;5009862;28;20050;-66
2021/01/04 06:55:48;;;;;;;32.28;19.95;;;;;;;3.74;56.10;94780.06;5009820;28;20038;-65
2021/01/04 06:58:22;;;;;;;30.50;19.20;;;;;;;3.72;55.81;94776.91;5009180;28;20045;-68
2021/01/04 07:01:18;;;;;;;35.10;20.33;;;;;;;3.71;56.24;94785.84;5009768;28;20048;-66
2021/01/04 07:04:23;;;;;;;32.50;19.50;;;;;;;3.62;55.88;94767.97;4992407;28;20100;-64
2021/01/04 07:07:20;;;;;;;33.25;21.42;;;;;;;3.65;56.11;94767.47;5010190;28;20050;-67
2021/01/04 07:09:58;;;;;;;36.83;22.55;;;;;;;3.70;56.16;94774.53;5005258;28;20502;-66
2021/01/04 07:12:55;;;;;;;35.10;21.58;;;;;;;3.63;56.25;94771.41;5009614;28;20468;-66
2021/01/04 07:15:31;;;;;;;37.33;20.65;;;;;;;3.62;56.24;94778.50;5009115;28;20472;-66
2021/01/04 07:18:24;;;;;;;37.15;22.83;;;;;;;3.57;56.22;94783.78;4994236;28;20518;-67
2021/01/04 07:21:33;;;;;;;39.35;22.80;;;;;;;3.26;56.21;94754.16;5010469;28;20042;-65
2021/01/04 07:24:23;;;;;;;35.50;21.88;;;;;;;3.52;56.21;94785.63;5010317;28;20042;-65
2021/01/04 07:27:00;;;;;;;37.38;22.10;;;;;;;3.50;56.55;94787.75;5010084;28;20054;-64
2021/01/04 07:30:03;;;;;;;35.95;21.42;;;;;;;2.92;57.12;94755.78;4991415;28;20439;-64
2021/01/04 07:32:59;;;;;;;43.58;23.10;;;;;;;3.30;57.36;94797.25;5009404;28;20084;-65
2021/01/04 07:35:49;;;;;;;46.20;23.85;;;;;;;2.96;57.31;94764.72;5009729;28;20038;-65
2021/01/04 07:38:32;;;;;;;45.17;23.60;;;;;;;3.22;57.20;94807.53;5009488;28;20049;-65
2021/01/04 07:41:10;;;;;;;40.03;21.60;;;;;;;2.75;57.46;94748.97;5009658;28;20117;-66
2021/01/04 07:43:48;;;;;;;42.53;23.05;;;;;;;3.19;57.83;94813.31;4992085;28;20092;-66
2021/01/04 07:46:28;;;;;;;41.17;23.63;;;;;;;3.25;57.63;94801.75;5009570;28;20144;-65
2021/01/04 07:49:39;;;;;;;43.30;23.58;;;;;;;2.32;57.36;94664.47;5009293;28;20412;-65
2021/01/04 07:52:41;;;;;;;42.05;23.77;;;;;;;3.40;57.20;94817.50;5009268;28;20137;-64
2021/01/04 07:55:44;;;;;;;48.35;23.27;;;;;;;3.22;57.36;94812.78;5009657;28;20120;-64
2021/01/04 07:58:22;;;;;;;46.95;23.55;;;;;;;2.90;58.06;94811.22;5009211;28;20494;-64
2021/01/04 08:01:06;;;;;;;45.25;23.00;;;;;;;3.12;58.04;94806.50;5009491;28;20157;-67
2021/01/04 08:03:31;;;;;;;42.17;22.90;;;;;;;3.09;57.99;94808.88;5009393;28;20515;-66
2021/01/04 08:06:33;;;;;;;39.00;22.40;;;;;;;3.17;57.65;94816.19;5011605;28;20170;-67
2021/01/04 08:09:01;;;;;;;45.03;24.02;;;;;;;3.18;57.83;94798.63;5013330;28;20076;-66
2021/01/04 08:11:41;;;;;;;39.72;23.60;;;;;;;3.33;57.36;94811.72;5012814;28;20088;-66
2021/01/04 08:14:44;;;;;;;44.42;24.80;;;;;;;3.30;57.01;94810.41;5013102;28;20128;-66
2021/01/04 08:17:27;;;;;;;40.45;23.95;;;;;;;2.98;58.21;94812.56;5012913;28;20038;-67
2021/01/04 08:19:55;;;;;;;44.83;24.40;;;;;;;2.84;58.50;94817.53;5012719;28;20053;-67
2021/01/04 08:22:39;;;;;;;48.05;25.58;;;;;;;2.92;57.89;94817.03;5012552;28;20041;-66
2021/01/04 08:25:10;;;;;;;44.05;24.40;;;;;;;2.75;58.64;94821.75;5012826;28;20042;-65
2021/01/04 08:27:45;;;;;;;46.50;24.88;;;;;;;2.60;58.63;94791.78;5012239;28;20080;-65
2021/01/04 08:30:24;;;;;;;44.13;24.80;;;;;;;2.53;59.44;94825.41;5012357;28;20599;-67
2021/01/04 08:33:23;;;;;;;45.55;25.20;;;;;;;2.52;59.43;94818.59;4996924;28;20548;-66
2021/01/04 08:35:48;;;;;;;42.10;24.15;;;;;;;2.10;60.34;94776.78;4981492;28;20103;-65
2021/01/04 08:38:28;;;;;;;45.17;25.58;;;;;;;2.68;59.62;94819.38;5012429;28;20046;-65
2021/01/04 08:40:59;;;;;;;47.70;24.58;;;;;;;2.70;59.52;94795.47;5012298;28;20447;-65
2021/01/04 08:43:45;;;;;;;44.38;25.15;;;;;;;2.85;59.17;94827.78;4994496;28;20042;-66
2021/01/04 08:46:23;;;;;;;48.58;24.63;;;;;;;3.05;58.27;94829.63;5012445;28;20046;-65
2021/01/04 08:49:15;;;;;;;44.13;23.70;;;;;;;3.09;58.08;94812.28;5011948;28;20037;-66
2021/01/04 08:51:42;;;;;;;41.92;24.25;;;;;;;2.90;57.76;94771.81;5012019;28;20096;-65
2021/01/04 08:54:10;;;;;;;44.47;24.83;;;;;;;3.28;57.79;94833.56;5012202;28;20375;-66
2021/01/04 08:56:40;;;;;;;42.33;23.90;;;;;;;2.95;57.78;94773.66;4996512;28;20111;-65
2021/01/04 08:59:19;;;;;;;38.97;22.95;;;;;;;3.02;57.39;94782.06;4994021;28;20407;-65
2021/01/04 09:01:55;;;;;;;39.42;23.50;;;;;;;3.05;57.69;94797.31;5011882;28;20149;-65
2021/01/04 09:04:39;;;;;;;45.70;24.73;;;;;;;2.58;58.77;94819.38;5012104;28;20052;-65
2021/01/04 09:07:10;;;;;;;44.00;24.65;;;;;;;2.79;58.95;94841.19;4994433;28;20037;-66
2021/01/04 09:09:50;;;;;;;46.45;25.80;;;;;;;2.96;59.46;94844.34;5011732;28;20096;-64
2021/01/04 09:12:37;;;;;;;47.80;25.63;;;;;;;2.91;59.38;94831.19;5011659;28;20066;-66
2021/01/04 09:15:14;;;;;;;51.13;27.88;;;;;;;2.62;59.18;94820.44;4996024;28;20069;-66
2021/01/04 09:17:50;;;;;;;48.30;25.65;;;;;;;2.65;59.44;94790.22;5012178;28;20201;-67
2021/01/04 09:20:37;;;;;;;42.50;23.65;;;;;;;2.71;59.42;94800.47;5011450;28;20053;-65
2021/01/04 09:23:20;;;;;;;49.08;25.15;;;;;;;3.11;59.20;94828.56;5011569;28;20034;-66
2021/01/04 09:25:52;;;;;;;44.63;24.27;;;;;;;2.98;59.01;94829.13;5011724;28;20034;-66
2021/01/04 09:28:20;;;;;;;48.78;25.83;;;;;;;2.85;59.15;94774.47;5010715;28;20173;-65
2021/01/04 09:30:48;;;;;;;47.58;25.67;;;;;;;3.16;59.26;94827.00;5011326;28;20030;-64
2021/01/04 09:33:18;;;;;;;46.60;26.17;;;;;;;2.96;59.36;94818.06;5011383;28;20030;-66
2021/01/04 09:35:44;;;;;;;45.83;25.40;;;;;;;2.72;59.79;94806.53;5013324;28;20026;-66
2021/01/04 09:38:18;;;;;;;49.63;26.48;;;;;;;2.58;60.49;94822.78;5011477;28;20440;-65
2021/01/04 09:40:50;;;;;;;45.53;24.63;;;;;;;2.79;60.29;94818.34;5011292;28;20045;-65
2021/01/04 09:43:19;;;;;;;52.08;26.17;;;;;;;2.89;59.58;94801.78;5011106;28;20068;-67
2021/01/04 09:45:44;;;;;;;47.40;25.55;;;;;;;2.87;59.30;94782.88;4993561;28;20462;-66
2021/01/04 09:48:23;;;;;;;42.28;24.83;;;;;;;2.84;59.76;94825.44;4994081;28;20026;-66
2021/01/04 09:50:57;;;;;;;45.72;25.73;;;;;;;2.95;59.97;94821.75;4995775;28;20555;-62
2021/01/04 09:53:37;;;;;;;42.92;24.83;;;;;;;3.02;58.94;94800.44;5010299;28;20042;-62
2021/01/04 09:56:13;;;;;;;47.70;25.52;;;;;;;2.95;59.45;94803.34;5011527;28;20099;-64
2021/01/04 09:58:40;;;;;;;47.55;26.58;;;;;;;2.95;59.28;94818.34;5025504;28;20128;-67
2021/01/04 10:01:11;;;;;;;46.20;24.92;;;;;;;2.90;59.82;94826.22;5010957;28;20041;-65
2021/01/04 10:03:37;;;;;;;42.47;25.13;;;;;;;2.46;60.00;94747.97;5010907;28;20524;-66
2021/01/04 10:06:07;;;;;;;53.60;26.02;;;;;;;2.84;59.81;94817.53;4995259;28;20037;-66
2021/01/04 10:08:33;;;;;;;44.83;24.92;;;;;;;3.04;59.55;94809.66;5025811;28;20095;-66
2021/01/04 10:11:09;;;;;;;45.83;24.95;;;;;;;2.68;59.37;94748.47;5010562;28;20120;-68
2021/01/04 10:13:39;;;;;;;47.10;24.85;;;;;;;3.42;59.04;94810.13;5010794;28;20038;-67
2021/01/04 10:16:14;;;;;;;43.92;23.27;;;;;;;3.56;57.85;94810.34;5010043;28;20488;-68
2021/01/04 10:18:55;;;;;;;47.40;24.02;;;;;;;3.67;57.62;94801.38;5010520;28;20042;-66
2021/01/04 10:21:31;;;;;;;46.72;25.83;;;;;;;3.73;57.32;94799.50;5010267;28;20117;-68
2021/01/04 10:24:03;;;;;;;43.72;24.55;;;;;;;2.70;57.39;94651.81;5027444;28;20022;-68
2021/01/04 10:26:29;;;;;;;43.08;24.83;;;;;;;3.53;57.67;94780.13;5010580;28;20095;-65
2021/01/04 10:28:54;;;;;;;43.55;24.90;;;;;;;3.43;57.37;94756.50;4991943;28;20487;-70
2021/01/04 10:31:27;;;;;;;52.13;25.67;;;;;;;3.31;57.82;94809.34;4992322;28;20034;-70
2021/01/04 10:34:08;;;;;;;47.85;25.52;;;;;;;3.45;58.05;94821.97;5010422;28;20125;-66
2021/01/04 10:36:34;;;;;;;44.03;24.02;;;;;;;2.71;58.15;94713.00;4988360;28;20034;-63
2021/01/04 10:39:18;;;;;;;50.75;26.75;;;;;;;3.31;58.34;94793.59;5012076;28;20030;-66
2021/01/04 10:41:43;;;;;;;46.67;24.15;;;;;;;3.30;58.72;94791.22;5010438;28;20494;-64
2021/01/04 10:44:20;;;;;;;52.63;27.73;;;;;;;3.01;58.79;94785.75;5010487;28;20069;-64
2021/01/04 10:47:11;;;;;;;47.78;26.30;;;;;;;2.87;59.63;94775.00;5010288;28;20426;-65
2021/01/04 10:49:36;;;;;;;46.67;25.58;;;;;;;2.74;59.59;94747.41;5009934;28;20527;-66
2021/01/04 10:52:03;;;;;;;49.85;26.25;;;;;;;2.23;60.01;94700.16;4992087;28;20037;-65
2021/01/04 10:54:39;;;;;;;52.22;27.48;;;;;;;2.17;60.75;94718.81;5006736;28;20096;-65
2021/01/04 10:57:41;;;;;;;46.45;25.60;;;;;;;2.60;60.04;94757.66;4994005;28;20041;-65
2021/01/04 11:00:14;;;;;;;47.72;24.80;;;;;;;2.18;60.05;94730.88;5010617;28;20518;-66
2021/01/04 11:02:47;;;;;;;48.55;25.95;;;;;;;2.24;61.10;94748.19;5010606;28;20040;-64
2021/01/04 11:05:17;;;;;;;50.60;27.52;;;;;;;2.23;60.66;94712.50;5009714;28;20038;-63
2021/01/04 11:07:43;;;;;;;53.20;27.63;;;;;;;2.51;60.73;94754.00;5009866;28;20407;-63
2021/01/04 11:10:22;;;;;;;54.90;28.55;;;;;;;2.75;60.23;94748.97;4991520;28;20125;-63
2021/01/04 11:12:54;;;;;;;49.90;26.52;;;;;;;2.74;59.34;94723.00;5009304;28;20591;-63
2021/01/04 11:15:28;;;;;;;50.65;26.25;;;;;;;1.99;59.52;94602.03;4991938;28;20367;-65
2021/01/04 11:18:06;;;;;;;52.05;27.88;;;;;;;3.00;59.34;94742.91;5011637;28;20960;-63
2021/01/04 11:20:32;;;;;;;48.20;26.65;;;;;;;2.55;59.29;94673.63;5024451;28;20089;-64
2021/01/04 11:23:08;;;;;;;44.83;26.20;;;;;;;3.19;58.74;94731.84;4989206;28;20042;-64
2021/01/04 11:25:35;;;;;;;52.42;28.83;;;;;;;2.60;59.00;94678.88;4991755;28;20061;-64
2021/01/04 11:28:00;;;;;;;50.60;27.20;;;;;;;0.22;59.91;94394.63;5007981;28;20496;-64
2021/01/04 11:30:29;;;;;;;48.15;26.33;;;;;;;2.19;59.97;94672.88;5009278;28;20084;-64
2021/01/04 11:32:55;;;;;;;59.47;28.15;;;;;;;0.28;60.49;94414.50;5011458;28;20109;-64
2021/01/04 11:35:21;;;;;;;52.30;28.20;;;;;;;1.50;61.86;94683.78;5008854;28;20038;-64
2021/01/04 11:37:46;;;;;;;51.58;28.30;;;;;;;0.44;62.27;94512.94;5009117;28;20041;-62
2021/01/04 11:40:12;;;;;;;49.97;28.23;;;;;;;2.26;61.52;94752.16;5008305;28;20526;-62
2021/01/04 11:42:38;;;;;;;52.90;28.15;;;;;;;2.09;61.26;94684.16;5012906;28;20045;-62
2021/01/04 11:45:15;;;;;;;54.22;29.20;;;;;;;2.44;61.11;94737.72;5015564;28;20559;-62
2021/01/04 11:47:41;;;;;;;52.15;29.67;;;;;;;2.47;60.89;94734.56;5013406;28;20088;-62
2021/01/04 11:50:08;;;;;;;53.85;30.17;;;;;;;2.42;60.97;94729.31;5012804;28;20069;-63
2021/01/04 11:52:35;;;;;;;57.05;30.88;;;;;;;1.94;61.61;94693.84;5011840;28;20141;-62
2021/01/04 11:55:02;;;;;;;59.00;31.23;;;;;;;1.23;62.37;94619.25;5012808;28;20045;-63
2021/01/04 11:57:27;;;;;;;55.22;31.77;;;;;;;-0.14;62.55;94433.69;4992422;28;20058;-63
2021/01/04 11:59:53;;;;;;;56.88;30.73;;;;;;;2.17;62.01;94729.31;5014369;28;20030;-64
2021/01/04 12:02:18;;;;;;;60.88;32.38;;;;;;;1.16;62.09;94584.63;5012419;28;20046;-62
2021/01/04 12:04:44;;;;;;;60.78;30.67;;;;;;;0.41;62.77;94492.53;5012393;28;20103;-63
2021/01/04 12:07:10;;;;;;;58.72;31.65;;;;;;;0.03;62.13;94464.09;5012834;28;20495;-64
2021/01/04 12:09:36;;;;;;;59.53;31.63;;;;;;;0.52;61.81;94498.56;5011050;28;20049;-65
2021/01/04 12:12:01;;;;;;;55.58;30.35;;;;;;;-0.34;62.28;94374.25;5014580;28;20052;-64